LEBB Airport Information

Runway Information
Runway 10 Length 6562 ft width 148 ft
Elevation 116 ft Threshold ft Heading 97
Runway 28 Length 6562 ft Width 148 ft
Elevation 129 ft Threshold ft Heading 277
Runway 12 Length 8530 ft width 148 ft
Elevation 119 ft Threshold ft Heading 117
Runway 30 Length 8530 ft Width 148 ft
Elevation 128 ft Threshold 1509 ft Heading 297
Airport Frequencies
Type APP Name APP Frequency 120.7 MHZ
Type ATIS Name ATIS Frequency 118.825 MHZ
Type GND Name GND Frequency 121.7 MHZ
Type TWR Name TWR Frequency 118.5 MHZ
Airport Navaids
Type VOR-DME Name Bilbao Frequency 115900 KHZ
Airport Weather Information & NOTAM
ADDS - METARS form results

(0640 UTC 03 December 2022)
Data provider http://aviationweather.gov/metar/data/
 
METAR text: LEBB 030630Z VRB02KT 6000 RA FEW005 SCT025 BKN033 06/06 Q1010 TEMPO BKN010
Conditions at: LEBB (BILBAO/SONDICA , ES) observed 0630 UTC 03 December 2022
Temperature: 6.0°C (43°F)
Dewpoint: 6.0°C (43°F) [RH = 100%]
Pressure (altimeter): 29.82 inches Hg (1010.0 mb)
Winds: variable direction winds at 2 MPH (2 knots; 1.0 m/s)
Visibility: 4 miles ( 6 km)
Ceiling: 3300 feet AGL
Clouds: few clouds at 500 feet AGL
scattered clouds at 2500 feet AGL
broken clouds at 3300 feet AGL
Weather: RA  (moderate rain)

METAR text: LEBB 030600Z 10003KT 030V180 6000 RA SCT008 SCT018 BKN030 06/06 Q1010 TEMPO NSW
Conditions at: LEBB (BILBAO/SONDICA , ES) observed 0600 UTC 03 December 2022
Temperature: 6.0°C (43°F)
Dewpoint: 6.0°C (43°F) [RH = 100%]
Pressure (altimeter): 29.82 inches Hg (1010.0 mb)
Winds: from the E (100 degrees) at 3 MPH (3 knots; 1.5 m/s)
Visibility: 4 miles ( 6 km)
Ceiling: 3000 feet AGL
Clouds: scattered clouds at 800 feet AGL
scattered clouds at 1800 feet AGL
broken clouds at 3000 feet AGL
Weather: RA  (moderate rain)

METAR text: LEBB 030545Z 06004KT 020V110 6000 RA SCT008 BKN018 07/06 Q1010 TEMPO NSW
Conditions at: LEBB (BILBAO/SONDICA , ES) observed 0545 UTC 03 December 2022
Temperature: 7.0°C (45°F)
Dewpoint: 6.0°C (43°F) [RH = 93%]
Pressure (altimeter): 29.82 inches Hg (1010.0 mb)
Winds: from the ENE (60 degrees) at 5 MPH (4 knots; 2.1 m/s)
Visibility: 4 miles ( 6 km)
Ceiling: 1800 feet AGL
Clouds: scattered clouds at 800 feet AGL
broken clouds at 1800 feet AGL
Weather: RA  (moderate rain)

Forecast for: LEBB (BILBAO/SONDICA , ES)
Text: TAF LEBB 030500Z 0306/0406 VRB03KT 9999 BKN025 TX07/0315Z TN02/0406Z
Forecast period: 0600 UTC 03 December 2022 to 0600 UTC 04 December 2022
Forecast type: FROM: standard forecast or significant change
Winds: variable direction winds at 3 MPH (3 knots; 1.5 m/s)
Visibility: 6 or more miles (10+ km)
Ceiling: 2500 feet AGL
Clouds: broken clouds at 2500 feet AGL
Weather: no significant weather forecast for this period
Text: TEMPO 0306/0318 3000 RA BKN010 SCT025TCU
Forecast period: 0600 to 1800 UTC 03 December 2022
Forecast type: TEMPORARY: The following changes expected for less than half the time period
Visibility: 1.86 miles (2.99 km)
Ceiling: 1000 feet AGL
Clouds: broken clouds at 1000 feet AGL
scattered clouds at 2500 feet AGL
Weather: RA  (moderate rain)
Text: TEMPO 0309/0318 30009KT
Forecast period: 0900 to 1800 UTC 03 December 2022
Forecast type: TEMPORARY: The following changes expected for less than half the time period
Winds: from the WNW (300 degrees) at 10 MPH (9 knots; 4.6 m/s)
Visibility: missing
Ceiling: unknown
Clouds: missing
Weather: no significant weather forecast for this period
Text: PROB30
Forecast period: 0900 to 1400 UTC 03 December 2022
Forecast type: TEMPORARY: The following changes expected for less than half the time period
Visibility: 0.93 miles (1.50 km)
Ceiling: at least 12,000 feet AGL
Clouds: few clouds at 2500 feet AGL
Weather: TSRA  (rain associated with thunderstorm(s))
Text: TEMPO 0309/0314 1500 TSRA FEW025CB
Forecast period: 1800 UTC 03 December 2022 to 0000 UTC 04 December 2022
Forecast type: TEMPORARY: The following changes expected for less than half the time period
Visibility: 1.86 miles (2.99 km)
Ceiling: 1000 feet AGL
Clouds: broken clouds at 1000 feet AGL
Weather: BR  (mist)